Latest News

First Solo: John Foote

Tuesday 15 October 2013

Congratulations to John who just went solo for the very first time!

Qualifying Cross Country: Amy Dudley-Cave

Monday 19 August 2013

Congratulations to Amy Dudley-Cave who has flown her Qualifying Cross Country flight from Newquay Airport to Cardiff Airport and Exeter Airport.

PPR Opening Hours

Friday 16 August 2013

Flynqy Pilot Training are able to offer PPR for visiting aircraft and have now formalised our opening times for this service.

PRICE DROP: Robin DR-400

Thursday 15 August 2013

Great news! We have been able to reduce the hourly rate on the Robin DR400 - a rare occurrence in aviation!

Culdrose Air Day: Competition Winnner!

Tuesday 13 August 2013

Thank you to everyone who visited us this year at Culdrose Air day and a big thank you to everyone who entered our "Win a Flight" competition!

Upcoming Events

Newquay Five Day Forecast

This Weather Widget is provided by the Met Office

EGHQ TAF and METAR

METAR

EGHQ 241850Z 29004KT 9999 FEW048 20/18 Q1017

TAF

TAF EGHQ 241658Z 2418/2421 VRB04KT 9999 FEW040 TEMPO 2418/2421 7000 SHRA PROB40 TEMPO 2418/2421 4500 +SHRA +TSRA BKN014 BKN030CB